Time;durP1;ratioP1;P1;durP2;ratioP2;P2;SDS_P1;SDS_P2;PMS_P1;PMS_P2;Temp;Humidity;BMP_temperature;BMP_pressure;BME280_temperature;BME280_humidity;BME280_pressure;Samples;Min_cycle;Max_cycle;Signal;HPM_P1;HPM_P2
2021/11/11 00:00:43;;;;;;;61.30;31.17;;;;;;;3.01;100.00;99087.31;4925149;29;20024;-80
2021/11/11 00:03:09;;;;;;;50.67;30.08;;;;;;;3.03;100.00;99081.72;4923007;29;20038;-79
2021/11/11 00:05:35;;;;;;;53.47;27.98;;;;;;;3.03;100.00;99087.94;4922933;29;20490;-80
2021/11/11 00:08:01;;;;;;;47.58;27.45;;;;;;;3.10;100.00;99087.91;4923743;29;20051;-80
2021/11/11 00:10:27;;;;;;;49.30;27.95;;;;;;;3.20;100.00;99075.53;4922881;29;20033;-80
2021/11/11 00:12:54;;;;;;;56.30;29.55;;;;;;;3.15;100.00;99069.97;4888546;29;20043;-80
2021/11/11 00:15:21;;;;;;;50.75;27.20;;;;;;;3.28;100.00;99073.59;4921923;29;20390;-80
2021/11/11 00:17:48;;;;;;;54.20;29.13;;;;;;;3.22;100.00;99076.16;4927440;29;20153;-80
2021/11/11 00:20:16;;;;;;;54.20;29.92;;;;;;;3.28;100.00;99069.03;4921528;29;20051;-79
2021/11/11 00:22:43;;;;;;;53.50;29.98;;;;;;;3.34;100.00;99067.31;4938061;29;20031;-79
2021/11/11 00:25:10;;;;;;;66.10;35.30;;;;;;;3.26;100.00;99059.50;4924391;29;20019;-80
2021/11/11 00:27:36;;;;;;;97.72;38.40;;;;;;;3.20;100.00;99059.31;4941666;29;20035;-79
2021/11/11 00:30:03;;;;;;;77.82;35.72;;;;;;;3.24;100.00;99063.25;4941187;29;20044;-79
2021/11/11 00:32:28;;;;;;;86.90;37.22;;;;;;;3.32;100.00;99054.00;4940060;29;20059;-78
2021/11/11 00:34:54;;;;;;;68.90;35.90;;;;;;;3.34;100.00;99054.63;4940434;29;20087;-78
2021/11/11 00:37:21;;;;;;;135.55;43.05;;;;;;;3.23;100.00;99039.94;4940022;29;20030;-78
2021/11/11 00:39:47;;;;;;;92.72;40.35;;;;;;;3.32;100.00;99037.78;4939555;29;20056;-79
2021/11/11 00:42:13;;;;;;;102.68;39.13;;;;;;;3.38;100.00;99041.50;4939968;29;20031;-78
2021/11/11 00:44:38;;;;;;;71.55;37.17;;;;;;;3.40;100.00;99039.38;4939565;29;20092;-78
2021/11/11 00:47:04;;;;;;;76.10;37.60;;;;;;;3.40;100.00;99021.28;4940152;29;20036;-78
2021/11/11 00:49:30;;;;;;;179.30;45.78;;;;;;;3.32;100.00;99021.56;4940096;29;20139;-77
2021/11/11 00:51:55;;;;;;;144.80;43.42;;;;;;;3.28;100.00;99035.75;4908237;29;20038;-78
2021/11/11 00:54:21;;;;;;;276.75;46.78;;;;;;;3.21;100.00;99023.13;4946307;29;20087;-78
2021/11/11 00:56:47;;;;;;;193.95;46.10;;;;;;;3.26;100.00;99019.75;4944801;29;20078;-78
2021/11/11 00:59:12;;;;;;;305.15;51.50;;;;;;;3.27;100.00;99012.47;4938042;29;20504;-77
2021/11/11 01:01:38;;;;;;;160.02;40.20;;;;;;;3.32;100.00;99004.53;4938055;29;20023;-77
2021/11/11 01:04:04;;;;;;;97.47;40.25;;;;;;;3.30;100.00;98995.81;4920174;29;20388;-77
2021/11/11 01:06:29;;;;;;;151.18;43.05;;;;;;;3.28;100.00;98998.75;4937288;29;20028;-76
2021/11/11 01:08:57;;;;;;;141.25;42.47;;;;;;;3.30;100.00;98995.81;4933785;29;20032;-78
2021/11/11 01:11:23;;;;;;;109.50;41.45;;;;;;;3.36;100.00;98992.22;4926103;29;20095;-76
2021/11/11 01:13:49;;;;;;;81.57;36.60;;;;;;;3.36;100.00;98979.53;4930204;29;20102;-78
2021/11/11 01:16:15;;;;;;;162.65;43.53;;;;;;;3.47;100.00;98986.06;4936501;29;20477;-76
2021/11/11 01:18:40;;;;;;;154.32;43.75;;;;;;;3.37;100.00;98983.06;4937021;29;20480;-76
2021/11/11 01:21:07;;;;;;;91.38;39.03;;;;;;;3.37;100.00;98980.34;4936839;29;20027;-75
2021/11/11 01:23:33;;;;;;;175.10;41.50;;;;;;;3.49;100.00;98983.97;4943078;29;20043;-76
2021/11/11 01:25:59;;;;;;;137.63;40.28;;;;;;;3.45;100.00;98977.34;4924535;29;20455;-76
2021/11/11 01:28:25;;;;;;;104.88;38.25;;;;;;;3.43;100.00;98971.34;4942677;29;20042;-75
2021/11/11 01:30:50;;;;;;;127.53;41.72;;;;;;;3.34;100.00;98978.09;4942849;29;20052;-78
2021/11/11 01:33:16;;;;;;;81.72;39.65;;;;;;;3.39;100.00;98973.66;4941757;29;20050;-78
2021/11/11 01:35:42;;;;;;;94.95;38.28;;;;;;;3.33;100.00;98979.13;4943302;29;20028;-78
2021/11/11 01:38:08;;;;;;;87.05;39.70;;;;;;;3.30;100.00;98964.19;4943038;29;20461;-78
2021/11/11 01:40:34;;;;;;;82.10;39.85;;;;;;;3.40;100.00;98966.38;4930958;29;20032;-79
2021/11/11 01:43:04;;;;;;;85.80;36.10;;;;;;;3.40;100.00;98964.50;4930468;29;20455;-79
2021/11/11 01:45:36;;;;;;;72.75;35.78;;;;;;;3.42;100.00;98962.41;4925177;29;20024;-78
2021/11/11 01:48:03;;;;;;;71.10;36.20;;;;;;;3.49;100.00;98960.47;4924529;29;20028;-80
2021/11/11 01:50:29;;;;;;;72.78;35.47;;;;;;;3.50;100.00;98958.59;4926407;29;20474;-79
2021/11/11 01:52:56;;;;;;;65.00;35.38;;;;;;;3.54;100.00;98955.19;4924820;29;20039;-79
2021/11/11 01:55:22;;;;;;;67.90;34.70;;;;;;;3.61;100.00;98947.00;4923338;29;20438;-79
2021/11/11 01:57:48;;;;;;;62.20;30.95;;;;;;;3.58;100.00;98950.16;4935448;29;20083;-79
2021/11/11 02:00:19;;;;;;;53.05;29.23;;;;;;;3.55;100.00;98950.59;4936320;29;20031;-79
2021/11/11 02:02:44;;;;;;;59.90;30.35;;;;;;;3.46;100.00;98952.78;4929348;29;20036;-79
2021/11/11 02:05:10;;;;;;;56.67;30.85;;;;;;;3.52;100.00;98956.47;4921135;29;20035;-79
2021/11/11 02:07:36;;;;;;;59.05;28.77;;;;;;;3.42;100.00;98957.00;4926174;29;20038;-79
2021/11/11 02:10:02;;;;;;;56.33;30.27;;;;;;;3.42;100.00;98950.75;4933416;29;20059;-78
2021/11/11 02:12:29;;;;;;;59.30;30.35;;;;;;;3.41;100.00;98949.94;4928261;29;20058;-78
2021/11/11 02:14:56;;;;;;;52.70;29.85;;;;;;;3.46;100.00;98946.56;4936441;29;20028;-78
2021/11/11 02:17:29;;;;;;;56.30;29.20;;;;;;;3.40;100.00;98944.75;4940175;29;20106;-79
2021/11/11 02:20:10;;;;;;;47.40;26.70;;;;;;;3.34;100.00;98937.53;4940420;29;20115;-80
2021/11/11 02:22:36;;;;;;;62.42;28.67;;;;;;;3.40;100.00;98942.88;4939869;29;20032;-78
2021/11/11 02:25:10;;;;;;;56.78;28.70;;;;;;;3.29;100.00;98940.09;4941424;29;20512;-80
2021/11/11 02:27:35;;;;;;;54.63;28.42;;;;;;;3.26;100.00;98945.97;4942096;29;20028;-80
2021/11/11 02:30:06;;;;;;;81.85;29.08;;;;;;;3.07;100.00;98942.41;4941028;29;20387;-80
2021/11/11 02:32:32;;;;;;;61.97;28.95;;;;;;;3.10;100.00;98937.34;4943131;29;20034;-80
2021/11/11 02:34:58;;;;;;;107.28;31.80;;;;;;;2.76;100.00;98953.28;4943289;29;20028;-79
2021/11/11 02:37:27;;;;;;;100.35;30.17;;;;;;;2.74;100.00;98942.69;4937718;29;20051;-79
2021/11/11 02:39:53;;;;;;;114.95;31.33;;;;;;;2.69;100.00;98939.84;4932657;29;20039;-80
2021/11/11 02:42:19;;;;;;;95.20;31.42;;;;;;;2.54;100.00;98925.81;4926370;29;20488;-79
2021/11/11 02:44:45;;;;;;;118.93;31.55;;;;;;;2.55;100.00;98938.28;4933615;29;20478;-79
2021/11/11 02:47:11;;;;;;;117.00;32.33;;;;;;;2.53;100.00;98930.41;4932012;29;20113;-80
2021/11/11 02:49:36;;;;;;;73.32;34.05;;;;;;;2.58;100.00;98932.44;4929696;29;20060;-80
2021/11/11 02:52:03;;;;;;;130.98;33.45;;;;;;;2.58;100.00;98932.44;4939328;29;20042;-80
2021/11/11 02:54:28;;;;;;;168.95;33.95;;;;;;;2.45;100.00;98929.84;4944609;29;20029;-79
2021/11/11 02:56:54;;;;;;;117.53;34.50;;;;;;;2.52;100.00;98925.22;4946355;29;20035;-78
2021/11/11 02:59:21;;;;;;;175.02;33.97;;;;;;;2.46;100.00;98937.72;4948101;29;20020;-79
2021/11/11 03:01:46;;;;;;;122.82;33.08;;;;;;;2.44;100.00;98930.91;4947189;29;20107;-79
2021/11/11 03:04:11;;;;;;;93.00;30.60;;;;;;;2.49;100.00;98928.34;4933200;29;20040;-77
2021/11/11 03:06:38;;;;;;;137.35;32.03;;;;;;;2.54;100.00;98923.94;4955058;29;20019;-80
2021/11/11 03:09:04;;;;;;;111.45;31.52;;;;;;;2.58;100.00;98927.03;4955218;29;20035;-81
2021/11/11 03:11:30;;;;;;;72.05;28.10;;;;;;;2.64;100.00;98926.97;4951038;29;20070;-79
2021/11/11 03:13:56;;;;;;;72.30;29.52;;;;;;;2.77;100.00;98919.81;4941100;29;20051;-79
2021/11/11 03:16:21;;;;;;;138.93;26.80;;;;;;;2.79;100.00;98909.63;4941785;29;20378;-79
2021/11/11 03:18:47;;;;;;;104.15;26.67;;;;;;;2.78;100.00;98913.38;4942470;29;20109;-80
2021/11/11 03:21:14;;;;;;;81.38;27.13;;;;;;;2.75;100.00;98909.25;4899012;29;20028;-79
2021/11/11 03:23:40;;;;;;;138.77;28.77;;;;;;;2.82;100.00;98901.88;4930343;29;20107;-80
2021/11/11 03:26:06;;;;;;;169.23;31.75;;;;;;;2.82;100.00;98907.28;4936714;29;20047;-79
2021/11/11 03:28:31;;;;;;;244.52;33.08;;;;;;;2.87;100.00;98899.38;4938518;29;20204;-79
2021/11/11 03:30:57;;;;;;;175.65;30.23;;;;;;;2.77;100.00;98890.09;4939032;29;20529;-78
2021/11/11 03:33:22;;;;;;;158.23;30.35;;;;;;;2.74;100.00;98883.28;4936816;29;20492;-76
2021/11/11 03:35:48;;;;;;;122.07;28.73;;;;;;;2.72;100.00;98879.97;4936530;29;20039;-79
2021/11/11 03:38:14;;;;;;;58.33;26.90;;;;;;;2.81;100.00;98880.50;4938820;29;20111;-80
2021/11/11 03:40:44;;;;;;;179.07;28.38;;;;;;;2.70;100.00;98898.25;4942139;29;20064;-79
2021/11/11 03:43:10;;;;;;;125.85;25.70;;;;;;;2.67;100.00;98888.75;4938094;29;20051;-78
2021/11/11 03:45:36;;;;;;;79.85;27.65;;;;;;;2.79;100.00;98880.72;4937958;29;20059;-78
2021/11/11 03:48:02;;;;;;;230.65;30.58;;;;;;;2.87;100.00;98882.31;4924699;29;20023;-77
2021/11/11 03:50:28;;;;;;;175.70;28.80;;;;;;;2.87;100.00;98882.31;4944219;29;20016;-78
2021/11/11 03:52:55;;;;;;;77.20;26.05;;;;;;;2.86;100.00;98881.50;4940014;29;20028;-78
2021/11/11 03:55:24;;;;;;;191.70;27.48;;;;;;;2.73;100.00;98876.22;4935685;29;20501;-79
2021/11/11 03:57:51;;;;;;;122.80;26.02;;;;;;;2.84;100.00;98880.91;4928358;29;20060;-79
2021/11/11 04:00:18;;;;;;;104.57;28.38;;;;;;;2.84;100.00;98871.97;4928509;29;20031;-78
2021/11/11 04:02:44;;;;;;;62.67;29.08;;;;;;;2.96;100.00;98873.72;4919130;29;20036;-79
2021/11/11 04:05:10;;;;;;;99.10;27.75;;;;;;;2.97;100.00;98861.84;4918770;29;20401;-78
2021/11/11 04:07:35;;;;;;;109.90;28.83;;;;;;;3.00;100.00;98868.69;4921593;29;20063;-78
2021/11/11 04:10:02;;;;;;;92.50;28.85;;;;;;;2.99;100.00;98864.31;4925350;29;20034;-79
2021/11/11 04:12:27;;;;;;;106.22;30.67;;;;;;;3.00;100.00;98869.50;4940886;29;20087;-79
2021/11/11 04:14:52;;;;;;;92.05;31.30;;;;;;;3.04;100.00;98861.75;4941946;29;20040;-79
2021/11/11 04:17:18;;;;;;;80.13;29.85;;;;;;;3.13;100.00;98860.44;4941206;29;20031;-79
2021/11/11 04:19:44;;;;;;;72.63;28.08;;;;;;;3.04;100.00;98857.19;4926512;29;20027;-78
2021/11/11 04:22:09;;;;;;;93.93;30.77;;;;;;;3.03;100.00;98862.84;4944575;29;20039;-78
2021/11/11 04:24:35;;;;;;;88.57;28.77;;;;;;;3.00;100.00;98860.56;4944022;29;20179;-78
2021/11/11 04:27:06;;;;;;;146.45;29.58;;;;;;;2.85;100.00;98865.53;4923841;29;20042;-78
2021/11/11 04:29:35;;;;;;;100.13;29.13;;;;;;;2.83;100.00;98860.31;4924228;29;20542;-79
2021/11/11 04:32:03;;;;;;;110.32;30.35;;;;;;;2.80;100.00;98849.97;4920072;29;20092;-79
2021/11/11 04:34:31;;;;;;;130.63;29.60;;;;;;;2.72;100.00;98854.84;4932415;29;20464;-79
2021/11/11 05:02:53;;;;;;;294.35;40.10;;;;;;;3.19;100.00;98838.75;4921142;29;20024;-78
2021/11/11 05:05:19;;;;;;;159.43;32.88;;;;;;;3.13;100.00;98834.22;4920674;29;20039;-78
2021/11/11 05:07:45;;;;;;;71.18;30.55;;;;;;;3.19;100.00;98829.81;4904636;29;20028;-77
2021/11/11 05:10:12;;;;;;;110.88;30.20;;;;;;;3.18;100.00;98826.28;4931660;29;20044;-79
2021/11/11 05:12:37;;;;;;;66.38;28.65;;;;;;;3.23;100.00;98828.28;4926977;29;20024;-77
2021/11/11 05:15:04;;;;;;;96.40;27.40;;;;;;;3.26;100.00;98818.91;4921004;29;20040;-77
2021/11/11 05:17:29;;;;;;;74.57;26.88;;;;;;;3.28;100.00;98827.59;4921367;29;20036;-79
2021/11/11 05:19:55;;;;;;;118.53;29.48;;;;;;;3.16;100.00;98817.53;4905676;29;20027;-79
2021/11/11 05:22:20;;;;;;;89.15;27.30;;;;;;;3.12;100.00;98810.13;4928980;29;20027;-79
2021/11/11 05:24:46;;;;;;;106.55;28.80;;;;;;;3.13;100.00;98812.59;4925564;29;20486;-77
2021/11/11 05:27:13;;;;;;;105.57;29.45;;;;;;;3.16;100.00;98819.44;4921154;29;20024;-78
2021/11/11 05:29:39;;;;;;;191.50;33.70;;;;;;;3.10;100.00;98813.03;4929538;29;20040;-78
2021/11/11 05:32:05;;;;;;;76.60;29.40;;;;;;;3.19;100.00;98806.31;4924730;29;20541;-79
2021/11/11 05:34:30;;;;;;;203.60;35.78;;;;;;;3.10;100.00;98802.22;4921870;29;20031;-78
2021/11/11 05:36:57;;;;;;;217.40;34.38;;;;;;;3.13;100.00;98799.06;4938266;29;20148;-79
2021/11/11 05:39:22;;;;;;;131.05;34.03;;;;;;;3.09;100.00;98800.59;4938995;29;20483;-79
2021/11/11 05:41:47;;;;;;;277.60;38.53;;;;;;;3.06;100.00;98795.66;4938553;29;20119;-78
2021/11/11 05:44:13;;;;;;;181.23;36.10;;;;;;;3.11;100.00;98795.78;4930394;29;20024;-77
2021/11/11 05:46:39;;;;;;;199.75;35.88;;;;;;;3.08;100.00;98800.81;4925368;29;20029;-77
2021/11/11 05:49:05;;;;;;;102.47;33.28;;;;;;;3.13;100.00;98804.47;4908451;29;20443;-77
2021/11/11 05:51:31;;;;;;;105.15;31.13;;;;;;;3.18;100.00;98801.94;4920683;29;20064;-77
2021/11/11 05:53:56;;;;;;;117.63;31.63;;;;;;;3.17;100.00;98799.44;4922410;29;20040;-79
2021/11/11 05:56:23;;;;;;;85.43;29.60;;;;;;;3.20;100.00;98802.53;4938035;29;20111;-78
2021/11/11 05:58:48;;;;;;;128.82;28.65;;;;;;;3.13;100.00;98801.78;4937801;29;20031;-76
2021/11/11 06:01:14;;;;;;;116.57;29.88;;;;;;;3.18;100.00;98806.53;4937409;29;20035;-79
2021/11/11 06:03:39;;;;;;;120.57;30.45;;;;;;;3.22;100.00;98813.97;4938049;29;20485;-79
2021/11/11 06:06:05;;;;;;;298.38;34.70;;;;;;;3.29;100.00;98815.75;4939045;29;20028;-80
2021/11/11 06:08:30;;;;;;;153.18;33.95;;;;;;;3.27;100.00;98807.84;4938405;29;20032;-79
2021/11/11 06:10:56;;;;;;;147.15;31.83;;;;;;;3.29;100.00;98815.75;4936167;29;20027;-78
2021/11/11 06:13:22;;;;;;;110.20;30.48;;;;;;;3.29;100.00;98810.34;4936280;29;20046;-78
2021/11/11 06:15:49;;;;;;;96.20;31.02;;;;;;;3.31;100.00;98809.06;4936819;29;20038;-78
2021/11/11 06:18:15;;;;;;;116.43;30.17;;;;;;;3.37;100.00;98816.25;4936192;29;20024;-78
2021/11/11 06:20:45;;;;;;;91.40;30.63;;;;;;;3.32;100.00;98815.31;4928748;29;20142;-76
2021/11/11 06:23:12;;;;;;;178.00;31.70;;;;;;;3.15;100.00;98815.09;4923844;29;20032;-76
2021/11/11 06:25:39;;;;;;;121.65;31.67;;;;;;;3.14;100.00;98816.13;4919926;29;20032;-76
2021/11/11 06:28:08;;;;;;;112.60;30.98;;;;;;;3.17;100.00;98813.78;4918224;29;20032;-76
2021/11/11 06:30:34;;;;;;;176.90;33.55;;;;;;;3.07;100.00;98813.50;4926148;29;20075;-75
2021/11/11 06:33:00;;;;;;;126.35;30.55;;;;;;;3.09;100.00;98816.00;4923811;29;20457;-74
2021/11/11 06:35:27;;;;;;;112.75;28.92;;;;;;;3.13;100.00;98818.00;4911060;29;20027;-77
2021/11/11 06:37:53;;;;;;;103.78;30.98;;;;;;;3.09;100.00;98833.03;4926978;29;20035;-76
2021/11/11 06:40:18;;;;;;;65.13;29.40;;;;;;;3.18;100.00;98830.84;4925555;29;20460;-75
2021/11/11 06:42:44;;;;;;;51.53;27.45;;;;;;;3.22;100.00;98832.06;4927583;29;20082;-74
2021/11/11 06:45:13;;;;;;;72.22;27.98;;;;;;;3.18;100.00;98845.19;4926497;29;20032;-75
2021/11/11 06:47:40;;;;;;;59.05;26.67;;;;;;;3.22;100.00;98838.28;4933298;29;20035;-76
2021/11/11 06:50:08;;;;;;;62.78;26.35;;;;;;;3.21;100.00;98831.22;4908289;29;20028;-74
2021/11/11 06:52:34;;;;;;;61.50;26.38;;;;;;;3.09;100.00;98843.00;4924422;29;20512;-75
2021/11/11 06:54:59;;;;;;;68.90;25.42;;;;;;;3.16;100.00;98844.56;4922702;29;20028;-76
2021/11/11 06:57:25;;;;;;;80.47;27.55;;;;;;;3.12;100.00;98846.09;4924420;29;20023;-76
2021/11/11 06:59:50;;;;;;;56.42;26.52;;;;;;;3.19;100.00;98849.56;4923759;29;20024;-75
2021/11/11 07:02:16;;;;;;;65.50;26.02;;;;;;;3.17;100.00;98845.41;4922880;29;20054;-76
2021/11/11 07:04:41;;;;;;;52.67;25.45;;;;;;;3.21;100.00;98847.44;4924498;29;20019;-74
2021/11/11 07:07:06;;;;;;;53.15;24.70;;;;;;;3.36;100.00;98849.75;4922513;29;20032;-76
2021/11/11 07:09:32;;;;;;;53.70;25.25;;;;;;;3.44;100.00;98841.34;4923202;29;20027;-75
2021/11/11 07:11:57;;;;;;;56.08;24.85;;;;;;;3.43;100.00;98836.16;4924715;29;20036;-74
2021/11/11 07:14:23;;;;;;;65.85;24.58;;;;;;;3.46;100.00;98844.63;4924720;29;20046;-77
2021/11/11 07:16:48;;;;;;;55.17;23.55;;;;;;;3.43;100.00;98845.09;4931150;29;20062;-79
2021/11/11 07:19:14;;;;;;;52.85;24.65;;;;;;;3.70;100.00;98848.25;4931945;29;20504;-80
2021/11/11 07:21:40;;;;;;;102.35;25.00;;;;;;;3.75;100.00;98846.53;4933659;29;20086;-81
2021/11/11 07:24:05;;;;;;;54.88;23.42;;;;;;;3.69;100.00;98841.22;4937088;29;20040;-80
2021/11/11 07:26:32;;;;;;;62.55;23.58;;;;;;;3.59;100.00;98846.34;4935060;29;20012;-80
2021/11/11 07:28:57;;;;;;;71.97;24.52;;;;;;;3.58;100.00;98850.09;4941787;29;20102;-81
2021/11/11 07:31:25;;;;;;;88.95;24.20;;;;;;;3.55;100.00;98842.44;4941448;29;20116;-80
2021/11/11 07:33:51;;;;;;;70.80;24.98;;;;;;;3.59;100.00;98851.75;4937248;29;20032;-78
2021/11/11 07:36:17;;;;;;;62.17;27.02;;;;;;;3.59;100.00;98838.22;4925858;29;20032;-79
2021/11/11 07:38:42;;;;;;;87.10;28.83;;;;;;;3.62;100.00;98851.28;4928588;29;20378;-79
2021/11/11 07:41:09;;;;;;;90.10;30.00;;;;;;;3.60;100.00;98850.69;4926927;29;20027;-79
2021/11/11 07:43:34;;;;;;;94.53;26.33;;;;;;;3.20;100.00;98848.47;4924392;29;20020;-77
2021/11/11 07:46:04;;;;;;;71.70;28.00;;;;;;;3.24;100.00;98852.38;4926044;29;20378;-76
2021/11/11 07:48:30;;;;;;;68.43;26.50;;;;;;;3.32;100.00;98848.53;4930957;29;20051;-77
2021/11/11 07:50:57;;;;;;;88.80;30.33;;;;;;;3.49;100.00;98846.06;4938310;29;20017;-79
2021/11/11 07:53:23;;;;;;;85.40;29.70;;;;;;;3.55;100.00;98837.03;4941878;28;20088;-78
2021/11/11 07:55:48;;;;;;;70.25;30.02;;;;;;;3.70;100.00;98840.97;4950632;29;20027;-81
2021/11/11 07:58:14;;;;;;;77.95;27.98;;;;;;;3.72;100.00;98821.81;4955328;28;20032;-79
2021/11/11 08:00:40;;;;;;;71.63;30.98;;;;;;;3.88;100.00;98826.59;4926379;29;20016;-77
2021/11/11 08:03:06;;;;;;;71.80;28.55;;;;;;;3.90;100.00;98835.28;4943961;28;20083;-76
2021/11/11 08:05:32;;;;;;;68.30;29.27;;;;;;;3.97;100.00;98836.00;4951056;29;20047;-79
2021/11/11 08:07:58;;;;;;;67.90;28.40;;;;;;;3.92;100.00;98833.16;4939734;29;20004;-75
2021/11/11 08:10:23;;;;;;;64.70;29.23;;;;;;;4.02;100.00;98838.84;4939651;29;20032;-80
2021/11/11 08:12:49;;;;;;;68.45;30.13;;;;;;;4.08;100.00;98840.63;4939916;29;20032;-76
2021/11/11 08:15:16;;;;;;;76.35;30.45;;;;;;;4.10;100.00;98841.19;4923721;29;20025;-79
2021/11/11 08:17:44;;;;;;;69.30;30.23;;;;;;;4.09;100.00;98841.44;4950787;29;20035;-81
2021/11/11 08:20:11;;;;;;;63.17;29.98;;;;;;;4.16;100.00;98832.19;4959443;29;20024;-78
2021/11/11 08:22:36;;;;;;;69.85;30.88;;;;;;;4.21;100.00;98832.31;4945555;28;20034;-78
2021/11/11 08:25:07;;;;;;;61.25;29.92;;;;;;;4.20;100.00;98841.47;4946470;29;20024;-78
2021/11/11 08:27:34;;;;;;;58.38;29.83;;;;;;;4.22;100.00;98825.84;4940926;29;20032;-80
2021/11/11 08:29:59;;;;;;;76.10;32.65;;;;;;;4.30;100.00;98827.34;4949735;29;20051;-81
2021/11/11 08:32:26;;;;;;;60.70;29.92;;;;;;;4.42;100.00;98833.59;4937366;29;20025;-80
2021/11/11 08:34:52;;;;;;;68.78;32.28;;;;;;;4.45;100.00;98826.94;4945688;29;20048;-79
2021/11/11 08:37:19;;;;;;;66.93;31.67;;;;;;;4.44;100.00;98839.63;4934411;29;20091;-79
2021/11/11 08:39:45;;;;;;;71.85;32.92;;;;;;;4.42;100.00;98843.66;4918342;29;20030;-79
2021/11/11 08:42:12;;;;;;;80.47;32.03;;;;;;;4.30;100.00;98836.31;4933055;29;20388;-80
2021/11/11 08:44:39;;;;;;;72.50;33.70;;;;;;;4.38;100.00;98828.91;4932409;29;20039;-80
2021/11/11 08:47:05;;;;;;;70.65;31.90;;;;;;;4.38;100.00;98821.63;4929743;29;20028;-80
2021/11/11 08:49:31;;;;;;;66.88;31.80;;;;;;;4.36;100.00;98820.19;4925458;29;20028;-79
2021/11/11 08:51:57;;;;;;;77.57;33.15;;;;;;;4.33;100.00;98833.13;4912226;29;20023;-79
2021/11/11 08:54:27;;;;;;;68.65;32.22;;;;;;;4.37;100.00;98833.50;4940322;29;20030;-79
2021/11/11 08:56:57;;;;;;;73.90;32.22;;;;;;;4.27;100.00;98815.13;4953374;28;20047;-80
2021/11/11 08:59:24;;;;;;;81.88;34.22;;;;;;;4.27;100.00;98825.13;4942993;29;20056;-75
2021/11/11 09:01:56;;;;;;;70.28;32.53;;;;;;;4.26;100.00;98821.59;4938560;29;20031;-80
2021/11/11 09:04:22;;;;;;;70.40;31.15;;;;;;;4.44;100.00;98823.38;4949279;29;20022;-82
2021/11/11 09:06:49;;;;;;;74.93;31.20;;;;;;;4.52;100.00;98819.50;4946749;29;20012;-78
2021/11/11 09:09:15;;;;;;;65.72;31.52;;;;;;;4.60;100.00;98811.03;4940889;29;20009;-81
2021/11/11 09:11:42;;;;;;;64.40;31.75;;;;;;;4.72;100.00;98811.84;4959965;29;20043;-81
2021/11/11 09:14:07;;;;;;;65.15;29.10;;;;;;;4.79;100.00;98817.97;4942712;29;20028;-80
2021/11/11 09:16:33;;;;;;;58.00;29.55;;;;;;;4.78;100.00;98805.47;4941122;29;20040;-80
2021/11/11 09:18:59;;;;;;;62.90;30.33;;;;;;;4.59;100.00;98817.50;4946215;29;20027;-77
2021/11/11 09:21:28;;;;;;;64.50;30.05;;;;;;;4.76;100.00;98823.88;4940301;29;20035;-79
2021/11/11 09:23:53;;;;;;;73.43;31.40;;;;;;;4.75;100.00;98827.63;4940750;29;20032;-79
2021/11/11 09:26:19;;;;;;;56.97;29.45;;;;;;;4.95;100.00;98817.22;4952158;29;20031;-79
2021/11/11 09:28:45;;;;;;;60.22;28.95;;;;;;;5.14;100.00;98817.91;4947221;29;20095;-78
2021/11/11 09:31:14;;;;;;;69.88;31.48;;;;;;;5.18;100.00;98825.31;4946344;29;20004;-79
2021/11/11 09:33:41;;;;;;;66.63;31.27;;;;;;;5.26;100.00;98803.25;4960716;28;20047;-79
2021/11/11 09:36:06;;;;;;;59.55;30.60;;;;;;;5.38;100.00;98803.22;4944404;29;20052;-81
2021/11/11 09:38:32;;;;;;;62.63;30.85;;;;;;;5.24;100.00;98813.53;4942267;29;20024;-80
2021/11/11 09:40:58;;;;;;;69.15;31.65;;;;;;;5.49;100.00;98812.38;4941856;29;20032;-76
2021/11/11 09:43:25;;;;;;;65.15;34.03;;;;;;;5.48;100.00;98803.44;4942675;29;20036;-74
2021/11/11 09:45:51;;;;;;;60.13;28.33;;;;;;;5.57;100.00;98806.59;4951567;29;20038;-75
2021/11/11 09:48:17;;;;;;;63.55;31.25;;;;;;;5.39;100.00;98813.81;4953322;29;20019;-80
2021/11/11 09:50:45;;;;;;;57.08;29.02;;;;;;;5.38;100.00;98801.34;4955838;29;20035;-75
2021/11/11 09:53:14;;;;;;;55.40;29.48;;;;;;;5.48;100.00;98791.75;4959961;29;20035;-78
2021/11/11 10:01:20;;;;;;;67.38;33.33;;;;;;;5.01;100.00;98772.91;4940824;29;20027;-76
2021/11/11 10:03:51;;;;;;;66.32;30.77;;;;;;;5.05;100.00;98760.50;4941600;29;20052;-73
2021/11/11 10:06:25;;;;;;;63.90;32.90;;;;;;;5.57;100.00;98788.41;4942531;29;20060;-76
2021/11/11 10:08:59;;;;;;;64.78;32.33;;;;;;;5.43;100.00;98761.81;4939258;29;20046;-81
2021/11/11 10:11:34;;;;;;;65.63;33.15;;;;;;;5.52;100.00;98763.88;4938258;29;20051;-77
2021/11/11 10:14:07;;;;;;;68.25;33.78;;;;;;;5.48;100.00;98745.63;4925445;29;20032;-74
2021/11/11 10:16:35;;;;;;;69.60;34.08;;;;;;;5.84;100.00;98778.59;4941179;29;20027;-77
2021/11/11 10:21:38;;;;;;;65.05;32.65;;;;;;;5.62;100.00;98764.09;5527425;23;20076;-76
2021/11/11 10:24:18;;;;;;;64.68;33.88;;;;;;;5.80;100.00;98765.75;4979693;28;20038;-77
2021/11/11 10:26:58;;;;;;;74.32;32.83;;;;;;;6.21;100.00;98757.25;4979338;28;20011;-79
2021/11/11 10:29:41;;;;;;;59.22;31.52;;;;;;;6.03;100.00;98760.22;4979284;29;20024;-79
2021/11/11 10:32:30;;;;;;;62.38;33.13;;;;;;;6.08;100.00;98751.31;4979004;28;20027;-78
2021/11/11 10:35:02;;;;;;;58.15;30.05;;;;;;;6.30;100.00;98744.91;4936109;28;20158;-76
2021/11/11 10:37:31;;;;;;;59.13;31.25;;;;;;;6.36;100.00;98749.34;4980086;29;20011;-72
2021/11/11 10:40:01;;;;;;;59.85;30.88;;;;;;;6.23;100.00;98733.41;4979999;28;20059;-74
2021/11/11 10:42:29;;;;;;;58.92;31.05;;;;;;;6.24;100.00;98729.59;4948170;29;20026;-77
2021/11/11 10:44:56;;;;;;;60.60;31.58;;;;;;;6.28;100.00;98722.59;4978073;29;20071;-80
2021/11/11 10:47:28;;;;;;;61.53;31.38;;;;;;;6.32;100.00;98704.75;4975185;28;20082;-80
2021/11/11 10:49:56;;;;;;;62.47;31.45;;;;;;;6.44;100.00;98710.06;4975489;29;20039;-81
2021/11/11 10:52:38;;;;;;;64.60;31.08;;;;;;;6.74;100.00;98717.81;4979051;28;20023;-76
2021/11/11 10:55:09;;;;;;;68.95;32.67;;;;;;;6.72;100.00;98711.81;4980083;28;20042;-79
2021/11/11 10:57:48;;;;;;;61.28;32.55;;;;;;;6.47;100.00;98713.09;4975612;28;20031;-79
2021/11/11 11:00:26;;;;;;;64.35;32.90;;;;;;;6.33;100.00;98708.25;4979369;28;20018;-74
2021/11/11 11:02:58;;;;;;;65.75;33.88;;;;;;;6.11;100.00;98708.19;4978241;28;20059;-80
2021/11/11 11:05:49;;;;;;;66.47;33.78;;;;;;;6.48;100.00;98698.44;4958127;29;20050;-78
2021/11/11 11:08:22;;;;;;;72.47;35.10;;;;;;;6.34;100.00;98705.31;4948628;29;20091;-79
2021/11/11 11:10:52;;;;;;;67.20;34.00;;;;;;;6.46;100.00;98689.72;4950938;29;20023;-79
2021/11/11 11:13:24;;;;;;;65.65;33.58;;;;;;;6.83;100.00;98691.81;4953439;29;20036;-79
2021/11/11 11:15:58;;;;;;;71.63;34.25;;;;;;;6.90;100.00;98684.31;4950103;29;20540;-79
2021/11/11 11:18:40;;;;;;;71.38;35.10;;;;;;;6.96;100.00;98677.84;4956963;28;20033;-77
2021/11/11 11:21:16;;;;;;;63.67;34.53;;;;;;;6.96;100.00;98684.09;4955790;28;20036;-73
2021/11/11 11:23:52;;;;;;;69.32;35.83;;;;;;;6.88;100.00;98686.47;4953023;29;20097;-78
2021/11/11 11:26:20;;;;;;;;;;;;;;;6.64;100.00;98671.47;4967318;28;19995;-74
2021/11/11 11:29:08;;;;;;;62.45;33.17;;;;;;;6.76;100.00;98667.56;4950153;28;19919;-76
2021/11/11 11:31:51;;;;;;;62.38;33.80;;;;;;;6.99;100.00;98671.91;4955607;29;20031;-79
2021/11/11 11:34:23;;;;;;;63.38;34.50;;;;;;;7.34;100.00;98680.44;4959648;29;20060;-76
2021/11/11 11:37:01;;;;;;;59.20;33.78;;;;;;;7.30;100.00;98673.06;4939892;29;20028;-77
2021/11/11 11:39:31;;;;;;;71.30;36.33;;;;;;;7.47;100.00;98668.34;4941663;29;20035;-79
2021/11/11 11:42:10;;;;;;;64.72;34.10;;;;;;;7.72;100.00;98659.56;4940991;29;20031;-79
2021/11/11 11:44:48;;;;;;;64.75;34.13;;;;;;;7.72;100.00;98659.56;4941145;29;20031;-78
2021/11/11 11:47:21;;;;;;;67.60;33.88;;;;;;;7.94;100.00;98652.13;4940925;29;20035;-77
2021/11/11 11:49:52;;;;;;;66.93;35.30;;;;;;;8.19;100.00;98644.13;4941356;29;20389;-77